sensor_id;sensor_type;location;lat;lon;timestamp;P1;durP1;ratioP1;P2;durP2;ratioP2
75506;SDS011;64086;43.220;27.878;2024-03-08T00:00:17;21.67;;;15.15;;
75506;SDS011;64086;43.220;27.878;2024-03-08T00:02:43;27.38;;;15.82;;
75506;SDS011;64086;43.220;27.878;2024-03-08T00:05:10;22.75;;;16.30;;
75506;SDS011;64086;43.220;27.878;2024-03-08T00:07:38;24.90;;;15.73;;
75506;SDS011;64086;43.220;27.878;2024-03-08T00:10:08;22.48;;;14.60;;
75506;SDS011;64086;43.220;27.878;2024-03-08T00:12:41;26.23;;;15.43;;
75506;SDS011;64086;43.220;27.878;2024-03-08T00:15:10;24.60;;;15.45;;
75506;SDS011;64086;43.220;27.878;2024-03-08T00:17:39;23.08;;;15.13;;
75506;SDS011;64086;43.220;27.878;2024-03-08T00:20:05;25.27;;;16.05;;
75506;SDS011;64086;43.220;27.878;2024-03-08T00:22:33;25.33;;;15.07;;
75506;SDS011;64086;43.220;27.878;2024-03-08T00:25:03;23.40;;;15.05;;
75506;SDS011;64086;43.220;27.878;2024-03-08T00:27:29;25.50;;;16.13;;
75506;SDS011;64086;43.220;27.878;2024-03-08T00:29:55;23.75;;;15.10;;
75506;SDS011;64086;43.220;27.878;2024-03-08T00:32:21;21.50;;;14.75;;
75506;SDS011;64086;43.220;27.878;2024-03-08T00:34:49;25.60;;;15.30;;
75506;SDS011;64086;43.220;27.878;2024-03-08T00:37:17;24.90;;;14.73;;
75506;SDS011;64086;43.220;27.878;2024-03-08T00:39:43;24.25;;;15.38;;
75506;SDS011;64086;43.220;27.878;2024-03-08T00:42:08;22.73;;;15.40;;
75506;SDS011;64086;43.220;27.878;2024-03-08T00:44:34;22.67;;;14.10;;
75506;SDS011;64086;43.220;27.878;2024-03-08T00:46:59;23.50;;;14.95;;
75506;SDS011;64086;43.220;27.878;2024-03-08T00:49:25;21.80;;;14.63;;
75506;SDS011;64086;43.220;27.878;2024-03-08T00:51:50;22.40;;;15.02;;
75506;SDS011;64086;43.220;27.878;2024-03-08T00:54:16;27.90;;;15.75;;
75506;SDS011;64086;43.220;27.878;2024-03-08T00:56:42;22.35;;;14.52;;
75506;SDS011;64086;43.220;27.878;2024-03-08T00:59:07;21.98;;;14.80;;
75506;SDS011;64086;43.220;27.878;2024-03-08T01:01:33;26.73;;;15.32;;
75506;SDS011;64086;43.220;27.878;2024-03-08T01:03:58;20.70;;;14.13;;
75506;SDS011;64086;43.220;27.878;2024-03-08T01:06:24;23.00;;;14.23;;
75506;SDS011;64086;43.220;27.878;2024-03-08T01:08:49;23.58;;;15.07;;
75506;SDS011;64086;43.220;27.878;2024-03-08T01:11:17;22.55;;;14.27;;
75506;SDS011;64086;43.220;27.878;2024-03-08T01:13:43;20.90;;;14.57;;
75506;SDS011;64086;43.220;27.878;2024-03-08T01:16:08;20.95;;;15.00;;
75506;SDS011;64086;43.220;27.878;2024-03-08T01:18:35;22.85;;;15.10;;
75506;SDS011;64086;43.220;27.878;2024-03-08T01:21:00;21.65;;;14.10;;
75506;SDS011;64086;43.220;27.878;2024-03-08T01:23:26;22.77;;;14.30;;
75506;SDS011;64086;43.220;27.878;2024-03-08T01:25:51;21.98;;;13.93;;
75506;SDS011;64086;43.220;27.878;2024-03-08T01:28:22;20.88;;;14.55;;
75506;SDS011;64086;43.220;27.878;2024-03-08T01:30:51;25.27;;;15.55;;
75506;SDS011;64086;43.220;27.878;2024-03-08T01:33:23;24.60;;;15.13;;
75506;SDS011;64086;43.220;27.878;2024-03-08T01:35:53;19.98;;;13.82;;
75506;SDS011;64086;43.220;27.878;2024-03-08T01:38:19;19.42;;;13.57;;
75506;SDS011;64086;43.220;27.878;2024-03-08T01:40:47;22.58;;;13.55;;
75506;SDS011;64086;43.220;27.878;2024-03-08T01:43:25;20.95;;;13.20;;
75506;SDS011;64086;43.220;27.878;2024-03-08T01:45:53;20.90;;;14.15;;
75506;SDS011;64086;43.220;27.878;2024-03-08T01:48:20;22.90;;;14.85;;
75506;SDS011;64086;43.220;27.878;2024-03-08T01:50:49;22.65;;;14.18;;
75506;SDS011;64086;43.220;27.878;2024-03-08T01:53:15;19.25;;;13.35;;
75506;SDS011;64086;43.220;27.878;2024-03-08T01:55:40;23.05;;;14.02;;
75506;SDS011;64086;43.220;27.878;2024-03-08T01:58:06;23.90;;;14.15;;
75506;SDS011;64086;43.220;27.878;2024-03-08T02:00:35;20.73;;;14.25;;
75506;SDS011;64086;43.220;27.878;2024-03-08T02:03:00;23.80;;;13.65;;
75506;SDS011;64086;43.220;27.878;2024-03-08T02:05:26;23.25;;;14.13;;
75506;SDS011;64086;43.220;27.878;2024-03-08T02:07:52;20.13;;;13.50;;
75506;SDS011;64086;43.220;27.878;2024-03-08T02:10:18;21.70;;;14.68;;
75506;SDS011;64086;43.220;27.878;2024-03-08T02:12:43;18.77;;;13.65;;
75506;SDS011;64086;43.220;27.878;2024-03-08T02:15:09;22.25;;;13.52;;
75506;SDS011;64086;43.220;27.878;2024-03-08T02:17:35;20.13;;;13.20;;
75506;SDS011;64086;43.220;27.878;2024-03-08T02:20:01;22.60;;;13.45;;
75506;SDS011;64086;43.220;27.878;2024-03-08T02:22:30;18.67;;;12.38;;
75506;SDS011;64086;43.220;27.878;2024-03-08T02:24:59;21.30;;;13.65;;
75506;SDS011;64086;43.220;27.878;2024-03-08T02:27:26;20.02;;;12.60;;
75506;SDS011;64086;43.220;27.878;2024-03-08T02:29:56;21.23;;;13.45;;
75506;SDS011;64086;43.220;27.878;2024-03-08T02:32:22;21.30;;;13.40;;
75506;SDS011;64086;43.220;27.878;2024-03-08T02:34:48;25.67;;;14.77;;
75506;SDS011;64086;43.220;27.878;2024-03-08T02:37:14;19.23;;;13.40;;
75506;SDS011;64086;43.220;27.878;2024-03-08T02:39:40;21.85;;;13.50;;
75506;SDS011;64086;43.220;27.878;2024-03-08T02:42:06;20.98;;;13.13;;
75506;SDS011;64086;43.220;27.878;2024-03-08T02:44:32;18.92;;;12.82;;
75506;SDS011;64086;43.220;27.878;2024-03-08T02:46:58;19.90;;;13.80;;
75506;SDS011;64086;43.220;27.878;2024-03-08T02:49:25;20.52;;;12.27;;
75506;SDS011;64086;43.220;27.878;2024-03-08T02:51:51;18.95;;;12.75;;
75506;SDS011;64086;43.220;27.878;2024-03-08T02:54:17;19.48;;;14.00;;
75506;SDS011;64086;43.220;27.878;2024-03-08T02:56:44;19.85;;;12.60;;
75506;SDS011;64086;43.220;27.878;2024-03-08T02:59:11;20.27;;;12.95;;
75506;SDS011;64086;43.220;27.878;2024-03-08T03:01:37;19.20;;;13.13;;
75506;SDS011;64086;43.220;27.878;2024-03-08T03:04:03;21.35;;;13.68;;
75506;SDS011;64086;43.220;27.878;2024-03-08T03:06:29;20.98;;;12.80;;
75506;SDS011;64086;43.220;27.878;2024-03-08T03:08:54;20.63;;;13.02;;
75506;SDS011;64086;43.220;27.878;2024-03-08T03:11:22;17.48;;;12.70;;
75506;SDS011;64086;43.220;27.878;2024-03-08T03:13:48;19.48;;;12.95;;
75506;SDS011;64086;43.220;27.878;2024-03-08T03:16:19;20.15;;;12.75;;
75506;SDS011;64086;43.220;27.878;2024-03-08T03:18:45;20.10;;;13.40;;
75506;SDS011;64086;43.220;27.878;2024-03-08T03:21:11;18.75;;;12.95;;
75506;SDS011;64086;43.220;27.878;2024-03-08T03:23:38;21.25;;;13.23;;
75506;SDS011;64086;43.220;27.878;2024-03-08T03:26:05;18.80;;;12.23;;
75506;SDS011;64086;43.220;27.878;2024-03-08T03:28:35;20.17;;;13.23;;
75506;SDS011;64086;43.220;27.878;2024-03-08T03:31:06;19.42;;;13.45;;
75506;SDS011;64086;43.220;27.878;2024-03-08T03:33:32;21.73;;;13.43;;
75506;SDS011;64086;43.220;27.878;2024-03-08T03:35:59;23.27;;;14.35;;
75506;SDS011;64086;43.220;27.878;2024-03-08T03:38:26;18.70;;;12.57;;
75506;SDS011;64086;43.220;27.878;2024-03-08T03:40:53;21.08;;;13.10;;
75506;SDS011;64086;43.220;27.878;2024-03-08T03:43:22;19.52;;;12.90;;
75506;SDS011;64086;43.220;27.878;2024-03-08T03:45:48;24.65;;;13.45;;
75506;SDS011;64086;43.220;27.878;2024-03-08T03:48:14;22.13;;;12.95;;
75506;SDS011;64086;43.220;27.878;2024-03-08T03:50:39;18.13;;;12.32;;
75506;SDS011;64086;43.220;27.878;2024-03-08T03:53:05;18.77;;;12.23;;
75506;SDS011;64086;43.220;27.878;2024-03-08T03:55:33;19.48;;;13.23;;
75506;SDS011;64086;43.220;27.878;2024-03-08T03:57:59;19.00;;;13.70;;
75506;SDS011;64086;43.220;27.878;2024-03-08T04:00:26;20.60;;;13.05;;
75506;SDS011;64086;43.220;27.878;2024-03-08T04:02:52;20.58;;;12.80;;
75506;SDS011;64086;43.220;27.878;2024-03-08T04:05:17;19.33;;;12.90;;
75506;SDS011;64086;43.220;27.878;2024-03-08T04:07:43;21.70;;;13.20;;
75506;SDS011;64086;43.220;27.878;2024-03-08T04:10:10;21.17;;;13.40;;
75506;SDS011;64086;43.220;27.878;2024-03-08T04:12:36;19.67;;;13.30;;
75506;SDS011;64086;43.220;27.878;2024-03-08T04:15:02;18.58;;;12.35;;
75506;SDS011;64086;43.220;27.878;2024-03-08T04:17:28;17.10;;;12.93;;
75506;SDS011;64086;43.220;27.878;2024-03-08T04:19:53;18.13;;;12.60;;
75506;SDS011;64086;43.220;27.878;2024-03-08T04:22:19;21.13;;;13.25;;
75506;SDS011;64086;43.220;27.878;2024-03-08T04:24:45;19.35;;;13.30;;
75506;SDS011;64086;43.220;27.878;2024-03-08T04:27:11;20.67;;;13.25;;
75506;SDS011;64086;43.220;27.878;2024-03-08T04:29:36;20.70;;;12.93;;
75506;SDS011;64086;43.220;27.878;2024-03-08T04:32:03;21.40;;;13.48;;
75506;SDS011;64086;43.220;27.878;2024-03-08T04:34:30;19.52;;;13.65;;
75506;SDS011;64086;43.220;27.878;2024-03-08T04:36:59;22.40;;;12.98;;
75506;SDS011;64086;43.220;27.878;2024-03-08T04:39:25;20.42;;;12.68;;
75506;SDS011;64086;43.220;27.878;2024-03-08T04:41:53;19.02;;;12.18;;
75506;SDS011;64086;43.220;27.878;2024-03-08T04:44:20;20.92;;;12.65;;
75506;SDS011;64086;43.220;27.878;2024-03-08T04:46:45;18.90;;;12.98;;
75506;SDS011;64086;43.220;27.878;2024-03-08T04:49:11;22.23;;;13.02;;
75506;SDS011;64086;43.220;27.878;2024-03-08T04:51:38;21.17;;;13.55;;
75506;SDS011;64086;43.220;27.878;2024-03-08T04:54:03;18.45;;;13.07;;
75506;SDS011;64086;43.220;27.878;2024-03-08T04:56:30;21.02;;;13.52;;
75506;SDS011;64086;43.220;27.878;2024-03-08T04:58:55;22.58;;;14.00;;
75506;SDS011;64086;43.220;27.878;2024-03-08T05:01:21;20.90;;;13.07;;
75506;SDS011;64086;43.220;27.878;2024-03-08T05:03:46;18.60;;;13.00;;
75506;SDS011;64086;43.220;27.878;2024-03-08T05:06:15;23.48;;;14.15;;
75506;SDS011;64086;43.220;27.878;2024-03-08T05:08:41;22.65;;;14.77;;
75506;SDS011;64086;43.220;27.878;2024-03-08T05:11:06;24.80;;;13.98;;
75506;SDS011;64086;43.220;27.878;2024-03-08T05:13:32;24.15;;;12.98;;
75506;SDS011;64086;43.220;27.878;2024-03-08T05:15:59;21.13;;;14.27;;
75506;SDS011;64086;43.220;27.878;2024-03-08T05:18:25;21.00;;;13.50;;
75506;SDS011;64086;43.220;27.878;2024-03-08T05:20:53;24.13;;;14.48;;
75506;SDS011;64086;43.220;27.878;2024-03-08T05:23:18;21.45;;;14.00;;
75506;SDS011;64086;43.220;27.878;2024-03-08T05:25:44;21.58;;;14.13;;
75506;SDS011;64086;43.220;27.878;2024-03-08T05:28:12;21.50;;;14.48;;
75506;SDS011;64086;43.220;27.878;2024-03-08T05:30:38;23.55;;;15.15;;
75506;SDS011;64086;43.220;27.878;2024-03-08T05:33:04;24.13;;;14.13;;
75506;SDS011;64086;43.220;27.878;2024-03-08T05:35:29;21.17;;;13.80;;
75506;SDS011;64086;43.220;27.878;2024-03-08T05:37:55;21.13;;;13.52;;
75506;SDS011;64086;43.220;27.878;2024-03-08T05:40:21;24.40;;;15.77;;
75506;SDS011;64086;43.220;27.878;2024-03-08T05:42:46;23.20;;;13.70;;
75506;SDS011;64086;43.220;27.878;2024-03-08T05:45:12;20.77;;;13.75;;
75506;SDS011;64086;43.220;27.878;2024-03-08T05:47:38;21.73;;;14.35;;
75506;SDS011;64086;43.220;27.878;2024-03-08T05:50:04;23.40;;;13.57;;
75506;SDS011;64086;43.220;27.878;2024-03-08T05:52:32;23.17;;;13.80;;
75506;SDS011;64086;43.220;27.878;2024-03-08T05:54:58;22.27;;;14.07;;
75506;SDS011;64086;43.220;27.878;2024-03-08T05:57:24;24.70;;;15.00;;
75506;SDS011;64086;43.220;27.878;2024-03-08T05:59:49;27.40;;;14.77;;
75506;SDS011;64086;43.220;27.878;2024-03-08T06:02:15;23.92;;;15.10;;
75506;SDS011;64086;43.220;27.878;2024-03-08T06:04:44;28.75;;;16.20;;
75506;SDS011;64086;43.220;27.878;2024-03-08T06:07:12;28.25;;;18.98;;
75506;SDS011;64086;43.220;27.878;2024-03-08T06:09:37;29.05;;;17.42;;
75506;SDS011;64086;43.220;27.878;2024-03-08T06:12:03;30.45;;;17.33;;
75506;SDS011;64086;43.220;27.878;2024-03-08T06:14:31;31.15;;;17.05;;
75506;SDS011;64086;43.220;27.878;2024-03-08T06:16:57;27.52;;;15.98;;
75506;SDS011;64086;43.220;27.878;2024-03-08T06:19:22;23.00;;;13.65;;
75506;SDS011;64086;43.220;27.878;2024-03-08T06:21:48;21.88;;;12.82;;
75506;SDS011;64086;43.220;27.878;2024-03-08T06:24:14;23.25;;;13.48;;
75506;SDS011;64086;43.220;27.878;2024-03-08T06:26:40;20.80;;;13.68;;
75506;SDS011;64086;43.220;27.878;2024-03-08T06:29:06;21.70;;;13.73;;
75506;SDS011;64086;43.220;27.878;2024-03-08T06:31:34;22.20;;;13.77;;
75506;SDS011;64086;43.220;27.878;2024-03-08T06:34:04;21.63;;;13.75;;
75506;SDS011;64086;43.220;27.878;2024-03-08T06:36:32;22.13;;;12.55;;
75506;SDS011;64086;43.220;27.878;2024-03-08T06:38:58;21.40;;;12.60;;
75506;SDS011;64086;43.220;27.878;2024-03-08T06:41:24;18.60;;;12.98;;
75506;SDS011;64086;43.220;27.878;2024-03-08T06:43:49;20.08;;;12.70;;
75506;SDS011;64086;43.220;27.878;2024-03-08T06:46:18;16.75;;;10.73;;
75506;SDS011;64086;43.220;27.878;2024-03-08T06:48:45;17.60;;;11.30;;
75506;SDS011;64086;43.220;27.878;2024-03-08T06:51:11;17.00;;;10.48;;
75506;SDS011;64086;43.220;27.878;2024-03-08T06:53:36;19.38;;;11.07;;
75506;SDS011;64086;43.220;27.878;2024-03-08T06:56:03;14.88;;;10.27;;
75506;SDS011;64086;43.220;27.878;2024-03-08T06:58:29;17.33;;;10.55;;
75506;SDS011;64086;43.220;27.878;2024-03-08T07:00:54;14.75;;;9.95;;
75506;SDS011;64086;43.220;27.878;2024-03-08T07:03:23;15.90;;;10.57;;
75506;SDS011;64086;43.220;27.878;2024-03-08T07:05:49;15.63;;;10.13;;
75506;SDS011;64086;43.220;27.878;2024-03-08T07:08:14;16.00;;;10.80;;
75506;SDS011;64086;43.220;27.878;2024-03-08T07:10:41;14.68;;;9.98;;
75506;SDS011;64086;43.220;27.878;2024-03-08T07:13:07;13.75;;;9.63;;
75506;SDS011;64086;43.220;27.878;2024-03-08T07:15:33;16.48;;;10.48;;
75506;SDS011;64086;43.220;27.878;2024-03-08T07:17:58;15.85;;;10.70;;
75506;SDS011;64086;43.220;27.878;2024-03-08T07:20:25;15.77;;;10.55;;
75506;SDS011;64086;43.220;27.878;2024-03-08T07:22:50;15.20;;;10.48;;
75506;SDS011;64086;43.220;27.878;2024-03-08T07:25:16;15.85;;;10.50;;
75506;SDS011;64086;43.220;27.878;2024-03-08T07:27:52;15.10;;;10.27;;
75506;SDS011;64086;43.220;27.878;2024-03-08T07:30:19;14.57;;;10.50;;
75506;SDS011;64086;43.220;27.878;2024-03-08T07:33:04;15.80;;;10.23;;
75506;SDS011;64086;43.220;27.878;2024-03-08T07:35:30;19.42;;;11.93;;
75506;SDS011;64086;43.220;27.878;2024-03-08T07:37:56;16.92;;;11.52;;
75506;SDS011;64086;43.220;27.878;2024-03-08T07:40:22;16.52;;;11.48;;
75506;SDS011;64086;43.220;27.878;2024-03-08T07:42:48;18.48;;;11.73;;
75506;SDS011;64086;43.220;27.878;2024-03-08T07:45:16;22.35;;;12.30;;
75506;SDS011;64086;43.220;27.878;2024-03-08T07:47:42;19.20;;;12.93;;
75506;SDS011;64086;43.220;27.878;2024-03-08T07:50:08;19.15;;;12.80;;
75506;SDS011;64086;43.220;27.878;2024-03-08T07:52:34;19.08;;;12.98;;
75506;SDS011;64086;43.220;27.878;2024-03-08T07:55:01;21.45;;;12.95;;
75506;SDS011;64086;43.220;27.878;2024-03-08T07:57:27;19.10;;;12.48;;
75506;SDS011;64086;43.220;27.878;2024-03-08T07:59:52;21.80;;;12.85;;
75506;SDS011;64086;43.220;27.878;2024-03-08T08:02:18;20.10;;;13.57;;
75506;SDS011;64086;43.220;27.878;2024-03-08T08:04:43;19.83;;;12.77;;
75506;SDS011;64086;43.220;27.878;2024-03-08T08:07:10;18.60;;;12.05;;
75506;SDS011;64086;43.220;27.878;2024-03-08T08:09:36;19.83;;;12.52;;
75506;SDS011;64086;43.220;27.878;2024-03-08T08:12:03;19.35;;;12.35;;
75506;SDS011;64086;43.220;27.878;2024-03-08T08:14:29;17.85;;;12.30;;
75506;SDS011;64086;43.220;27.878;2024-03-08T08:16:56;20.42;;;13.20;;
75506;SDS011;64086;43.220;27.878;2024-03-08T08:19:22;19.58;;;12.30;;
75506;SDS011;64086;43.220;27.878;2024-03-08T08:21:48;17.05;;;11.98;;
75506;SDS011;64086;43.220;27.878;2024-03-08T08:24:14;18.85;;;13.20;;
75506;SDS011;64086;43.220;27.878;2024-03-08T08:26:40;17.40;;;11.48;;
75506;SDS011;64086;43.220;27.878;2024-03-08T08:29:05;17.88;;;11.60;;
75506;SDS011;64086;43.220;27.878;2024-03-08T08:31:31;17.30;;;11.65;;
75506;SDS011;64086;43.220;27.878;2024-03-08T08:33:58;18.25;;;12.93;;
75506;SDS011;64086;43.220;27.878;2024-03-08T08:36:24;20.55;;;12.63;;
75506;SDS011;64086;43.220;27.878;2024-03-08T08:38:49;20.42;;;12.95;;
75506;SDS011;64086;43.220;27.878;2024-03-08T08:41:15;17.88;;;12.27;;
75506;SDS011;64086;43.220;27.878;2024-03-08T08:43:42;18.45;;;12.63;;
75506;SDS011;64086;43.220;27.878;2024-03-08T08:46:09;17.13;;;12.77;;
75506;SDS011;64086;43.220;27.878;2024-03-08T08:48:39;19.13;;;12.10;;
75506;SDS011;64086;43.220;27.878;2024-03-08T08:51:06;16.60;;;11.82;;
75506;SDS011;64086;43.220;27.878;2024-03-08T08:53:37;16.50;;;11.57;;
75506;SDS011;64086;43.220;27.878;2024-03-08T08:56:05;17.77;;;12.00;;
75506;SDS011;64086;43.220;27.878;2024-03-08T08:58:33;19.85;;;11.25;;
75506;SDS011;64086;43.220;27.878;2024-03-08T09:00:58;19.45;;;11.43;;
75506;SDS011;64086;43.220;27.878;2024-03-08T09:03:24;17.17;;;11.00;;
75506;SDS011;64086;43.220;27.878;2024-03-08T09:05:52;16.38;;;11.40;;
75506;SDS011;64086;43.220;27.878;2024-03-08T09:08:17;18.27;;;11.27;;
75506;SDS011;64086;43.220;27.878;2024-03-08T09:10:43;16.48;;;10.98;;
75506;SDS011;64086;43.220;27.878;2024-03-08T09:13:09;15.88;;;10.80;;
75506;SDS011;64086;43.220;27.878;2024-03-08T09:15:35;15.70;;;10.52;;
75506;SDS011;64086;43.220;27.878;2024-03-08T09:18:01;18.67;;;10.65;;
75506;SDS011;64086;43.220;27.878;2024-03-08T09:20:27;16.08;;;10.63;;
75506;SDS011;64086;43.220;27.878;2024-03-08T09:22:53;14.98;;;9.95;;
75506;SDS011;64086;43.220;27.878;2024-03-08T09:25:19;14.40;;;10.55;;
75506;SDS011;64086;43.220;27.878;2024-03-08T09:27:45;14.80;;;10.68;;
75506;SDS011;64086;43.220;27.878;2024-03-08T09:30:11;16.25;;;9.95;;
75506;SDS011;64086;43.220;27.878;2024-03-08T09:32:38;14.93;;;10.68;;
75506;SDS011;64086;43.220;27.878;2024-03-08T09:35:03;19.42;;;11.15;;
75506;SDS011;64086;43.220;27.878;2024-03-08T09:37:32;18.20;;;11.30;;
75506;SDS011;64086;43.220;27.878;2024-03-08T09:39:59;20.00;;;12.45;;
75506;SDS011;64086;43.220;27.878;2024-03-08T09:42:24;17.08;;;11.93;;
75506;SDS011;64086;43.220;27.878;2024-03-08T09:44:50;21.17;;;12.70;;
75506;SDS011;64086;43.220;27.878;2024-03-08T09:47:16;22.30;;;12.98;;
75506;SDS011;64086;43.220;27.878;2024-03-08T09:49:43;21.08;;;12.95;;
75506;SDS011;64086;43.220;27.878;2024-03-08T09:52:09;18.35;;;12.48;;
75506;SDS011;64086;43.220;27.878;2024-03-08T09:54:35;20.55;;;13.38;;
75506;SDS011;64086;43.220;27.878;2024-03-08T09:57:01;19.67;;;12.48;;
75506;SDS011;64086;43.220;27.878;2024-03-08T09:59:29;17.85;;;13.30;;
75506;SDS011;64086;43.220;27.878;2024-03-08T10:01:57;25.63;;;15.35;;
75506;SDS011;64086;43.220;27.878;2024-03-08T10:04:24;20.85;;;13.40;;
75506;SDS011;64086;43.220;27.878;2024-03-08T10:06:53;18.90;;;14.05;;
75506;SDS011;64086;43.220;27.878;2024-03-08T10:09:19;19.15;;;12.73;;
75506;SDS011;64086;43.220;27.878;2024-03-08T10:11:45;18.63;;;13.15;;
75506;SDS011;64086;43.220;27.878;2024-03-08T10:14:11;20.15;;;13.27;;
75506;SDS011;64086;43.220;27.878;2024-03-08T10:16:40;18.23;;;12.48;;
75506;SDS011;64086;43.220;27.878;2024-03-08T10:19:06;19.08;;;12.45;;
75506;SDS011;64086;43.220;27.878;2024-03-08T10:21:33;21.27;;;13.73;;
75506;SDS011;64086;43.220;27.878;2024-03-08T10:23:58;22.75;;;13.30;;
75506;SDS011;64086;43.220;27.878;2024-03-08T10:26:24;17.77;;;12.88;;
75506;SDS011;64086;43.220;27.878;2024-03-08T10:28:51;19.13;;;12.70;;
75506;SDS011;64086;43.220;27.878;2024-03-08T10:31:18;22.45;;;13.35;;
75506;SDS011;64086;43.220;27.878;2024-03-08T10:33:44;18.10;;;13.35;;
75506;SDS011;64086;43.220;27.878;2024-03-08T10:36:14;22.10;;;13.77;;
75506;SDS011;64086;43.220;27.878;2024-03-08T10:38:41;22.00;;;13.40;;
75506;SDS011;64086;43.220;27.878;2024-03-08T10:41:11;19.65;;;13.00;;
75506;SDS011;64086;43.220;27.878;2024-03-08T10:49:18;20.30;;;14.00;;
75506;SDS011;64086;43.220;27.878;2024-03-08T10:51:50;20.45;;;13.48;;
75506;SDS011;64086;43.220;27.878;2024-03-08T10:54:17;19.20;;;13.60;;
75506;SDS011;64086;43.220;27.878;2024-03-08T10:56:44;21.42;;;13.95;;
75506;SDS011;64086;43.220;27.878;2024-03-08T10:59:12;17.48;;;12.27;;
75506;SDS011;64086;43.220;27.878;2024-03-08T11:01:38;20.98;;;13.02;;
75506;SDS011;64086;43.220;27.878;2024-03-08T11:04:05;21.17;;;14.32;;
75506;SDS011;64086;43.220;27.878;2024-03-08T11:12:25;18.20;;;12.93;;
75506;SDS011;64086;43.220;27.878;2024-03-08T11:14:54;20.17;;;13.68;;
75506;SDS011;64086;43.220;27.878;2024-03-08T11:19:59;22.42;;;13.88;;
75506;SDS011;64086;43.220;27.878;2024-03-08T11:22:32;21.17;;;13.57;;
75506;SDS011;64086;43.220;27.878;2024-03-08T11:25:02;22.38;;;14.00;;
75506;SDS011;64086;43.220;27.878;2024-03-08T11:27:31;19.98;;;12.98;;
75506;SDS011;64086;43.220;27.878;2024-03-08T11:30:04;26.25;;;14.98;;
75506;SDS011;64086;43.220;27.878;2024-03-08T11:32:37;20.35;;;13.77;;
75506;SDS011;64086;43.220;27.878;2024-03-08T11:35:06;20.88;;;13.32;;
75506;SDS011;64086;43.220;27.878;2024-03-08T11:37:34;19.02;;;13.27;;
75506;SDS011;64086;43.220;27.878;2024-03-08T11:40:01;19.85;;;12.98;;
75506;SDS011;64086;43.220;27.878;2024-03-08T11:42:29;18.92;;;13.70;;
75506;SDS011;64086;43.220;27.878;2024-03-08T11:44:55;21.77;;;13.75;;
75506;SDS011;64086;43.220;27.878;2024-03-08T11:47:21;23.15;;;14.52;;
75506;SDS011;64086;43.220;27.878;2024-03-08T11:49:47;21.30;;;14.80;;
75506;SDS011;64086;43.220;27.878;2024-03-08T11:52:14;23.25;;;15.07;;
75506;SDS011;64086;43.220;27.878;2024-03-08T11:54:41;20.85;;;13.85;;
75506;SDS011;64086;43.220;27.878;2024-03-08T11:57:07;18.02;;;12.95;;
75506;SDS011;64086;43.220;27.878;2024-03-08T11:59:34;20.48;;;13.70;;
75506;SDS011;64086;43.220;27.878;2024-03-08T12:02:03;20.40;;;13.35;;
75506;SDS011;64086;43.220;27.878;2024-03-08T12:04:30;21.10;;;12.48;;
75506;SDS011;64086;43.220;27.878;2024-03-08T12:06:57;17.45;;;12.20;;
75506;SDS011;64086;43.220;27.878;2024-03-08T12:09:26;20.75;;;12.77;;
75506;SDS011;64086;43.220;27.878;2024-03-08T12:11:51;18.02;;;11.95;;
75506;SDS011;64086;43.220;27.878;2024-03-08T12:14:17;24.50;;;13.43;;
75506;SDS011;64086;43.220;27.878;2024-03-08T12:16:43;20.85;;;12.32;;
75506;SDS011;64086;43.220;27.878;2024-03-08T12:19:09;21.00;;;12.95;;
75506;SDS011;64086;43.220;27.878;2024-03-08T12:21:35;19.70;;;12.63;;
75506;SDS011;64086;43.220;27.878;2024-03-08T12:24:08;20.73;;;13.02;;
75506;SDS011;64086;43.220;27.878;2024-03-08T12:26:37;21.10;;;13.15;;
75506;SDS011;64086;43.220;27.878;2024-03-08T12:29:20;19.52;;;12.50;;
75506;SDS011;64086;43.220;27.878;2024-03-08T12:31:52;20.95;;;12.32;;
75506;SDS011;64086;43.220;27.878;2024-03-08T12:34:19;21.27;;;13.43;;
75506;SDS011;64086;43.220;27.878;2024-03-08T12:36:45;17.48;;;11.48;;
75506;SDS011;64086;43.220;27.878;2024-03-08T12:39:15;19.92;;;12.55;;
75506;SDS011;64086;43.220;27.878;2024-03-08T12:41:43;17.17;;;11.18;;
75506;SDS011;64086;43.220;27.878;2024-03-08T12:44:08;19.35;;;12.10;;
75506;SDS011;64086;43.220;27.878;2024-03-08T12:46:36;18.75;;;12.63;;
75506;SDS011;64086;43.220;27.878;2024-03-08T12:49:08;20.65;;;12.77;;
75506;SDS011;64086;43.220;27.878;2024-03-08T12:51:34;20.10;;;11.68;;
75506;SDS011;64086;43.220;27.878;2024-03-08T12:54:00;23.02;;;13.20;;
75506;SDS011;64086;43.220;27.878;2024-03-08T12:56:30;17.48;;;11.65;;
75506;SDS011;64086;43.220;27.878;2024-03-08T12:58:59;18.95;;;11.43;;
75506;SDS011;64086;43.220;27.878;2024-03-08T13:01:25;18.83;;;12.77;;
75506;SDS011;64086;43.220;27.878;2024-03-08T13:03:52;18.35;;;11.00;;
75506;SDS011;64086;43.220;27.878;2024-03-08T13:06:18;23.67;;;13.20;;
75506;SDS011;64086;43.220;27.878;2024-03-08T13:08:46;20.58;;;12.88;;
75506;SDS011;64086;43.220;27.878;2024-03-08T13:11:13;18.42;;;11.70;;
75506;SDS011;64086;43.220;27.878;2024-03-08T13:13:42;18.42;;;12.02;;
75506;SDS011;64086;43.220;27.878;2024-03-08T13:16:09;22.92;;;13.23;;
75506;SDS011;64086;43.220;27.878;2024-03-08T13:18:36;22.20;;;12.77;;
75506;SDS011;64086;43.220;27.878;2024-03-08T13:21:02;22.95;;;13.15;;
75506;SDS011;64086;43.220;27.878;2024-03-08T13:23:32;17.30;;;11.85;;
75506;SDS011;64086;43.220;27.878;2024-03-08T13:26:04;20.88;;;12.32;;
75506;SDS011;64086;43.220;27.878;2024-03-08T13:28:29;24.40;;;12.25;;
75506;SDS011;64086;43.220;27.878;2024-03-08T13:30:56;25.75;;;13.38;;
75506;SDS011;64086;43.220;27.878;2024-03-08T13:33:26;21.92;;;13.10;;
75506;SDS011;64086;43.220;27.878;2024-03-08T13:35:54;20.90;;;12.85;;
75506;SDS011;64086;43.220;27.878;2024-03-08T13:38:19;18.50;;;11.57;;
75506;SDS011;64086;43.220;27.878;2024-03-08T13:40:45;24.33;;;14.05;;
75506;SDS011;64086;43.220;27.878;2024-03-08T13:43:12;25.70;;;12.82;;
75506;SDS011;64086;43.220;27.878;2024-03-08T13:45:38;25.05;;;14.18;;
75506;SDS011;64086;43.220;27.878;2024-03-08T13:48:03;19.25;;;13.43;;
75506;SDS011;64086;43.220;27.878;2024-03-08T13:50:30;23.77;;;14.65;;
75506;SDS011;64086;43.220;27.878;2024-03-08T13:52:56;20.48;;;13.32;;
75506;SDS011;64086;43.220;27.878;2024-03-08T13:55:21;21.80;;;13.00;;
75506;SDS011;64086;43.220;27.878;2024-03-08T13:57:48;20.52;;;13.45;;
75506;SDS011;64086;43.220;27.878;2024-03-08T14:00:14;20.60;;;12.75;;
75506;SDS011;64086;43.220;27.878;2024-03-08T14:02:40;21.58;;;13.80;;
75506;SDS011;64086;43.220;27.878;2024-03-08T14:05:08;19.30;;;13.27;;
75506;SDS011;64086;43.220;27.878;2024-03-08T14:07:35;20.85;;;12.02;;
75506;SDS011;64086;43.220;27.878;2024-03-08T14:10:01;20.90;;;12.65;;
75506;SDS011;64086;43.220;27.878;2024-03-08T14:12:26;21.60;;;13.13;;
75506;SDS011;64086;43.220;27.878;2024-03-08T14:14:52;21.02;;;12.98;;
75506;SDS011;64086;43.220;27.878;2024-03-08T14:17:18;22.77;;;13.68;;
75506;SDS011;64086;43.220;27.878;2024-03-08T14:19:43;22.60;;;12.15;;